This is the latest recevied weather packets stored in our database for station/object N4DLW-3. If no packets are shown the sender has not sent any weather packets the latest 1 day(s).
| Time | Temp. | Humidity | Pressure | Rain* | Wind** | Luminosity | Snow |
|---|---|---|---|---|---|---|---|
| 1778003384 | 31.11° C | 47% | 1015 hPa | 0 mm | 0 m/s | - | - |
| 1778003077 | 31.11° C | 48% | 1015.1 hPa | 0 mm | 0 m/s | - | - |
| 1778002785 | 31.11° C | 47% | 1015.1 hPa | 0 mm | 0 m/s | - | - |
| 1778002472 | 31.11° C | 47% | 1015.1 hPa | 0 mm | 0 m/s | - | - |
| 1778002185 | 31.67° C | 47% | 1015.2 hPa | 0 mm | 0 m/s | - | - |
| 1778001872 | 32.22° C | 46% | 1015.2 hPa | 0 mm | 0 m/s | - | - |
| 1778001586 | 32.22° C | 46% | 1015.3 hPa | 0 mm | 0 m/s | - | - |
| 1778001285 | 32.22° C | 46% | 1015.5 hPa | 0 mm | 0 m/s | - | - |
| 1778000974 | 31.67° C | 47% | 1015.4 hPa | 0 mm | 0 m/s | - | - |
| 1778000682 | 32.78° C | 46% | 1015.5 hPa | 0 mm | 0 m/s | - | - |
| 1778000377 | 32.78° C | 47% | 1015.6 hPa | 0 mm | 0 m/s | - | - |
| 1778000084 | 32.78° C | 48% | 1015.5 hPa | 0 mm | 0 m/s | - | - |
| 1777999772 | 32.78° C | 47% | 1015.5 hPa | 0 mm | 0 m/s | - | - |
| 1777999468 | 32.78° C | 47% | 1015.5 hPa | 0 mm | 0 m/s | - | - |
| 1777999173 | 32.78° C | 47% | 1015.6 hPa | 0 mm | 0 m/s | - | - |
| 1777998868 | 32.78° C | 48% | 1015.5 hPa | 0 mm | 0 m/s | - | - |
| 1777998572 | 32.22° C | 49% | 1015.6 hPa | 0 mm | 0 m/s | - | - |
| 1777998288 | 31.67° C | 50% | 1015.7 hPa | 0 mm | 0 m/s | - | - |
| 1777997974 | 32.22° C | 48% | 1015.6 hPa | 0 mm | 0 m/s | - | - |
| 1777997692 | 32.22° C | 49% | 1015.8 hPa | 0 mm | 0 m/s | - | - |
| 1777997378 | 32.22° C | 49% | 1015.7 hPa | 0 mm | 0 m/s | - | - |
| 1777997070 | 32.22° C | 49% | 1015.8 hPa | 0 mm | 0 m/s | - | - |
| 1777996784 | 31.67° C | 49% | 1015.6 hPa | 0 mm | 0 m/s | - | - |
| 1777996471 | 31.11° C | 52% | 1015.7 hPa | 0 mm | 0 m/s | - | - |
| 1777996185 | 30.56° C | 54% | 1015.7 hPa | 0 mm | 0 m/s | - | - |
* Rain latest hour (hover to see other rain measurements)
** Current wind speed in m/s (hover to see current wind gust speed)